Time;durP1;ratioP1;P1;durP2;ratioP2;P2;SDS_P1;SDS_P2;PMS_P1;PMS_P2;Temp;Humidity;BMP_temperature;BMP_pressure;BME280_temperature;BME280_humidity;BME280_pressure;Samples;Min_cycle;Max_cycle;Signal;HPM_P1;HPM_P2
2023/12/25 00:00:45;;;;;;;3.28;1.38;;;;;;;0.58;93.31;99834.94;10207642;29;20043;-70
2023/12/25 00:05:46;;;;;;;6.03;1.60;;;;;;;0.64;93.41;99845.75;10208516;29;20039;-70
2023/12/25 00:10:47;;;;;;;7.95;2.00;;;;;;;0.48;93.67;99802.59;10207901;29;20416;-70
2023/12/25 00:15:47;;;;;;;3.58;1.92;;;;;;;0.91;93.94;99848.03;10207017;29;20067;-70
2023/12/25 00:20:48;;;;;;;3.67;2.13;;;;;;;0.98;94.13;99844.94;10206828;29;20047;-70
2023/12/25 00:25:49;;;;;;;4.82;2.95;;;;;;;1.10;94.91;99855.25;10206348;29;20047;-70
2023/12/25 00:30:50;;;;;;;6.50;2.95;;;;;;;1.14;95.22;99851.47;10207215;29;20047;-70
2023/12/25 00:35:51;;;;;;;5.43;3.13;;;;;;;1.07;95.84;99842.41;10206894;29;20035;-70
2023/12/25 00:40:51;;;;;;;5.00;2.88;;;;;;;1.15;96.48;99857.53;10207063;29;20642;-70
2023/12/25 00:45:52;;;;;;;5.53;3.00;;;;;;;1.07;97.18;99828.50;10204488;29;20054;-70
2023/12/25 00:50:53;;;;;;;5.15;2.65;;;;;;;1.14;97.63;99848.84;10206118;29;20051;-70
2023/12/25 00:55:54;;;;;;;8.15;3.10;;;;;;;1.12;98.03;99857.78;10206062;29;20508;-70
2023/12/25 01:00:54;;;;;;;5.78;3.00;;;;;;;1.11;98.37;99861.34;10206316;29;20047;-70
2023/12/25 01:05:55;;;;;;;5.88;2.60;;;;;;;1.13;98.85;99855.03;10205452;29;20043;-71
2023/12/25 01:10:56;;;;;;;5.65;2.53;;;;;;;0.90;98.73;99808.94;10205799;29;20047;-70
2023/12/25 01:15:57;;;;;;;4.63;2.60;;;;;;;1.15;99.03;99860.16;10205347;29;20048;-70
2023/12/25 01:20:57;;;;;;;4.97;2.53;;;;;;;1.15;99.23;99860.16;10205874;29;20043;-70
2023/12/25 01:25:58;;;;;;;4.78;2.08;;;;;;;0.85;99.33;99814.50;10205810;29;20150;-70
2023/12/25 01:30:59;;;;;;;4.03;2.25;;;;;;;1.03;99.51;99848.03;10204881;29;20044;-70
2023/12/25 01:36:00;;;;;;;2.65;1.98;;;;;;;0.98;99.63;99856.22;10324821;28;20481;-70
2023/12/25 01:41:01;;;;;;;4.75;2.42;;;;;;;0.97;99.61;99874.66;10205821;29;20059;-70
2023/12/25 01:46:01;;;;;;;4.07;1.90;;;;;;;1.00;99.28;99884.88;10204684;29;20054;-70
2023/12/25 01:51:04;;;;;;;2.95;1.83;;;;;;;1.07;99.14;99891.28;10204916;29;20039;-70
2023/12/25 01:56:05;;;;;;;3.83;1.85;;;;;;;0.76;99.28;99825.66;10204554;29;20059;-70
2023/12/25 02:01:05;;;;;;;10.15;2.20;;;;;;;0.97;99.15;99874.66;10210445;29;20075;-70
2023/12/25 02:06:07;;;;;;;4.63;1.92;;;;;;;1.04;98.55;99886.31;10244224;28;20068;-70
2023/12/25 02:11:09;;;;;;;3.80;2.05;;;;;;;1.00;98.85;99877.03;10379530;28;20055;-69
2023/12/25 02:16:10;;;;;;;5.57;2.10;;;;;;;0.90;97.86;99864.66;10210802;29;20039;-69
2023/12/25 02:21:10;;;;;;;6.82;2.20;;;;;;;0.72;97.57;99854.75;10210216;29;20452;-70
2023/12/25 02:26:12;;;;;;;7.45;2.60;;;;;;;0.93;97.09;99899.38;10210937;29;20138;-70
2023/12/25 02:31:13;;;;;;;5.63;2.50;;;;;;;0.96;96.23;99904.34;10210745;28;20050;-71
2023/12/25 02:36:14;;;;;;;4.60;2.35;;;;;;;0.91;95.97;99921.25;10211855;29;20047;-72
2023/12/25 02:41:15;;;;;;;6.68;2.30;;;;;;;0.81;95.12;99906.38;10205215;29;20109;-70
2023/12/25 02:46:16;;;;;;;5.05;2.33;;;;;;;0.94;94.90;99927.19;10206989;29;20048;-70
2023/12/25 02:51:17;;;;;;;5.80;3.00;;;;;;;0.82;95.48;99908.88;10210322;29;20047;-70
2023/12/25 02:56:17;;;;;;;6.97;2.90;;;;;;;0.61;95.16;99886.97;10209581;29;20039;-70
2023/12/25 03:01:18;;;;;;;6.13;2.67;;;;;;;0.87;95.38;99947.75;10209919;29;20048;-70
2023/12/25 03:06:19;;;;;;;7.22;2.60;;;;;;;0.86;95.05;99944.28;10209761;29;20063;-70
2023/12/25 03:11:20;;;;;;;4.28;2.35;;;;;;;0.53;95.03;99884.91;10208581;29;20559;-70
2023/12/25 03:16:21;;;;;;;6.35;2.33;;;;;;;0.53;95.02;99891.94;10209335;29;20040;-70
2023/12/25 03:21:22;;;;;;;5.78;2.50;;;;;;;0.78;94.78;99928.38;10205255;28;20491;-69
2023/12/25 03:26:22;;;;;;;7.45;2.55;;;;;;;0.84;94.16;99948.81;10170295;29;20055;-69
2023/12/25 03:31:23;;;;;;;8.20;2.53;;;;;;;0.73;94.33;99974.09;10264371;28;20053;-69
2023/12/25 03:36:25;;;;;;;6.57;2.83;;;;;;;0.57;94.56;99966.53;10208660;29;20044;-69
2023/12/25 03:41:26;;;;;;;7.03;2.20;;;;;;;0.26;94.54;99913.09;10221591;28;20492;-68
2023/12/25 03:46:27;;;;;;;3.67;2.15;;;;;;;0.50;94.57;99954.88;10324048;28;20053;-70
2023/12/25 03:51:28;;;;;;;5.38;2.15;;;;;;;0.31;93.34;99919.66;10207907;29;20054;-71
2023/12/25 03:56:28;;;;;;;6.22;2.20;;;;;;;0.77;93.01;99978.97;10207825;29;20070;-73
2023/12/25 04:01:30;;;;;;;4.70;1.83;;;;;;;0.64;92.93;99957.31;10207590;29;20121;-70
2023/12/25 04:06:30;;;;;;;9.63;2.35;;;;;;;0.73;93.44;99979.31;10207799;29;20151;-69
2023/12/25 04:11:31;;;;;;;11.57;2.17;;;;;;;0.57;93.59;99971.75;10207921;29;20135;-69
2023/12/25 04:16:32;;;;;;;8.05;2.50;;;;;;;0.38;93.83;99941.75;10207357;29;20050;-69
2023/12/25 04:21:33;;;;;;;5.90;2.33;;;;;;;0.27;94.30;99961.78;10206110;29;20054;-69
2023/12/25 04:26:34;;;;;;;21.45;3.45;;;;;;;0.18;94.61;99960.66;10207285;29;20070;-67
2023/12/25 04:31:35;;;;;;;5.53;2.42;;;;;;;-0.18;94.32;99915.41;10206287;29;20052;-67
2023/12/25 04:36:36;;;;;;;8.32;2.60;;;;;;;0.07;94.56;99942.34;10203869;28;20039;-69
2023/12/25 04:41:38;;;;;;;4.65;2.30;;;;;;;0.11;94.32;99955.06;10293413;28;20047;-69
2023/12/25 04:46:41;;;;;;;3.57;2.07;;;;;;;0.35;94.62;99982.97;10204025;29;20097;-69
2023/12/25 04:51:41;;;;;;;7.28;2.65;;;;;;;0.28;93.52;99966.09;10206998;29;20410;-69
2023/12/25 04:56:42;;;;;;;6.45;2.17;;;;;;;0.51;93.53;100001.81;10206028;29;20051;-69
2023/12/25 05:01:43;;;;;;;5.80;1.92;;;;;;;0.51;93.18;100008.81;10205604;29;20406;-70
2023/12/25 05:06:43;;;;;;;4.38;2.00;;;;;;;0.41;93.31;100003.44;10206410;29;20085;-69
2023/12/25 05:11:44;;;;;;;9.75;1.90;;;;;;;0.53;93.30;100033.91;10205668;29;20035;-69
2023/12/25 05:16:45;;;;;;;4.03;1.90;;;;;;;0.29;92.83;99959.91;10206231;29;20553;-69
2023/12/25 05:21:46;;;;;;;6.05;2.05;;;;;;;0.58;91.51;99995.19;10205871;29;20054;-70
2023/12/25 05:26:47;;;;;;;3.08;1.40;;;;;;;0.74;90.85;100020.19;10205108;29;20541;-69
2023/12/25 05:31:47;;;;;;;5.57;1.40;;;;;;;0.74;90.93;100028.88;10206648;29;20036;-69
2023/12/25 05:36:48;;;;;;;5.75;1.65;;;;;;;0.74;90.60;100035.88;10211946;28;20063;-69
2023/12/25 05:41:50;;;;;;;8.30;1.35;;;;;;;0.49;90.97;99995.03;10211923;29;20052;-68
2023/12/25 05:46:51;;;;;;;9.30;1.83;;;;;;;0.90;90.17;100046.91;10212066;29;20504;-69
2023/12/25 05:51:52;;;;;;;5.28;1.60;;;;;;;0.96;90.14;100041.22;10212148;29;20055;-68
2023/12/25 05:56:53;;;;;;;4.95;1.75;;;;;;;0.90;90.04;100047.72;10211506;29;20052;-69
2023/12/25 06:01:54;;;;;;;8.27;1.95;;;;;;;0.38;90.03;99954.81;10211292;29;20048;-69
2023/12/25 06:06:55;;;;;;;5.55;2.97;;;;;;;1.01;90.46;100062.63;10212028;29;20036;-68
2023/12/25 06:11:55;;;;;;;8.15;2.17;;;;;;;1.16;90.16;100052.78;10210928;29;20377;-69
2023/12/25 06:16:56;;;;;;;3.35;1.50;;;;;;;1.34;89.99;100061.88;10211422;29;20047;-69
2023/12/25 06:21:57;;;;;;;6.28;1.65;;;;;;;1.41;89.98;100038.72;10211737;29;20515;-68
2023/12/25 06:26:58;;;;;;;3.33;1.55;;;;;;;1.59;89.63;100045.16;10211188;29;20065;-70
2023/12/25 06:31:59;;;;;;;4.38;1.58;;;;;;;1.86;89.04;100085.88;10211245;29;20043;-69
2023/12/25 14:38:55;;;;;;;2.72;1.05;;;;;;;3.31;79.53;99752.22;10467592;27;20441;-68
2023/12/25 14:43:56;;;;;;;2.92;1.02;;;;;;;3.38;80.70;99748.06;10464726;28;20050;-69
2023/12/25 14:48:57;;;;;;;2.42;0.90;;;;;;;3.54;80.92;99774.66;10447834;28;20496;-69
2023/12/25 14:53:58;;;;;;;2.28;0.90;;;;;;;3.36;82.54;99768.41;10448549;28;20041;-69
2023/12/25 14:58:59;;;;;;;6.50;1.20;;;;;;;3.30;83.68;99782.91;10447877;28;20041;-69
2023/12/25 15:04:00;;;;;;;6.88;1.60;;;;;;;2.89;83.81;99741.91;10447632;28;20037;-68
2023/12/25 15:09:02;;;;;;;2.90;1.20;;;;;;;3.11;85.22;99796.81;10447050;28;20049;-69
2023/12/25 15:14:03;;;;;;;2.42;0.98;;;;;;;2.93;88.19;99790.50;10446915;28;20033;-69
2023/12/25 15:19:05;;;;;;;2.97;1.13;;;;;;;2.82;89.77;99780.13;10446099;28;20045;-68
2023/12/25 15:24:06;;;;;;;3.95;1.10;;;;;;;2.68;92.07;99765.56;10446559;28;20077;-68
2023/12/25 15:29:08;;;;;;;5.63;1.02;;;;;;;2.48;93.58;99762.03;10404716;28;20041;-69
2023/12/25 15:34:09;;;;;;;3.63;1.20;;;;;;;1.99;95.43;99704.09;10406698;28;20085;-68
2023/12/25 15:39:10;;;;;;;2.72;0.90;;;;;;;2.10;97.33;99744.31;10428443;28;20132;-68
2023/12/25 15:44:12;;;;;;;2.58;1.23;;;;;;;2.00;98.86;99759.94;10445161;28;20045;-68
2023/12/25 15:49:13;;;;;;;2.42;1.10;;;;;;;1.88;99.82;99742.63;10422579;28;20057;-70
2023/12/25 15:54:14;;;;;;;6.13;1.00;;;;;;;1.75;100.00;99751.50;10418853;28;20033;-71
2023/12/25 15:59:15;;;;;;;2.63;1.20;;;;;;;1.65;100.00;99741.91;10418456;28;20041;-69
2023/12/25 16:04:17;;;;;;;6.18;1.25;;;;;;;1.55;100.00;99731.34;10417255;28;20047;-69
2023/12/25 16:09:19;;;;;;;3.50;1.17;;;;;;;1.09;100.00;99656.59;10416292;28;20603;-69
2023/12/25 16:14:22;;;;;;;4.05;1.50;;;;;;;1.44;100.00;99715.72;10415649;28;20143;-69
2023/12/25 16:19:24;;;;;;;5.33;2.23;;;;;;;1.36;100.00;99683.13;10407931;28;20473;-68
2023/12/25 16:24:26;;;;;;;7.30;2.45;;;;;;;1.23;100.00;99666.78;10417489;28;20531;-68
2023/12/25 16:29:27;;;;;;;7.43;2.80;;;;;;;1.29;100.00;99655.00;10417714;28;20048;-68
2023/12/25 16:34:30;;;;;;;4.40;2.72;;;;;;;1.21;100.00;99646.91;10415983;28;20064;-66
2023/12/25 16:39:31;;;;;;;6.93;1.85;;;;;;;1.11;100.00;99621.50;10412352;28;20382;-68
2023/12/25 16:44:32;;;;;;;4.90;1.90;;;;;;;1.11;100.00;99626.75;10413338;28;20045;-68
2023/12/25 16:49:33;;;;;;;4.90;1.98;;;;;;;1.09;100.00;99606.91;10411571;28;20041;-69
2023/12/25 16:54:34;;;;;;;6.70;1.90;;;;;;;1.06;100.00;99605.34;10410674;28;20053;-70
2023/12/25 16:59:35;;;;;;;3.22;1.98;;;;;;;0.72;100.00;99526.22;10414765;28;20045;-68
2023/12/25 17:04:36;;;;;;;4.03;1.88;;;;;;;1.26;100.00;99590.66;10416256;28;20118;-70
2023/12/25 17:09:37;;;;;;;2.90;1.65;;;;;;;1.28;100.00;99580.88;10397276;28;20041;-68
2023/12/25 17:14:40;;;;;;;6.07;2.13;;;;;;;1.27;100.00;99594.91;10413582;28;20531;-68
2023/12/25 17:19:41;;;;;;;4.15;2.33;;;;;;;1.30;100.00;99588.59;10414038;28;20048;-68
2023/12/25 17:24:42;;;;;;;4.05;2.50;;;;;;;1.30;100.00;99581.56;10414661;28;20409;-68
2023/12/25 17:29:43;;;;;;;4.10;2.15;;;;;;;1.02;100.00;99516.81;10413662;28;20040;-68
2023/12/25 17:34:49;;;;;;;5.90;2.20;;;;;;;1.33;100.00;99544.69;10413633;28;20057;-68
2023/12/25 17:39:52;;;;;;;6.10;2.38;;;;;;;1.33;100.00;99546.47;10414668;28;20450;-67
2023/12/25 17:44:54;;;;;;;2.97;1.90;;;;;;;1.34;100.00;99538.50;10414546;28;20061;-68
2023/12/25 17:49:56;;;;;;;4.95;2.00;;;;;;;0.98;100.00;99468.31;10414735;28;20120;-67
2023/12/25 17:54:58;;;;;;;4.28;1.98;;;;;;;1.40;100.00;99515.38;10414029;28;20048;-67
2023/12/25 17:59:59;;;;;;;6.15;1.90;;;;;;;1.24;100.00;99485.28;10412583;28;20049;-67
2023/12/25 18:05:00;;;;;;;6.25;2.15;;;;;;;1.35;100.00;99503.53;10413022;28;20033;-68
2023/12/25 18:10:03;;;;;;;6.00;2.28;;;;;;;1.33;100.00;99465.38;10413661;28;20124;-68
2023/12/25 18:15:11;;;;;;;4.10;2.00;;;;;;;1.21;100.00;99440.25;10412790;28;20069;-67
2023/12/25 18:20:12;;;;;;;3.58;1.90;;;;;;;1.42;100.00;99461.13;10414106;28;20037;-67
2023/12/25 18:25:13;;;;;;;3.25;1.50;;;;;;;1.11;100.00;99411.44;10411983;28;20501;-66
2023/12/25 18:30:14;;;;;;;3.83;1.80;;;;;;;1.41;100.00;99456.84;10411915;28;20099;-67
2023/12/25 18:35:16;;;;;;;3.00;1.58;;;;;;;1.33;100.00;99428.72;10413118;28;20425;-69
2023/12/25 18:40:17;;;;;;;4.03;1.30;;;;;;;1.46;100.00;99436.34;10412679;28;20048;-68
2023/12/25 18:45:18;;;;;;;11.13;1.48;;;;;;;1.38;100.00;99416.09;10412226;28;20092;-69
2023/12/25 18:50:21;;;;;;;2.22;1.10;;;;;;;1.42;100.00;99420.09;10412822;28;20167;-69
2023/12/25 18:55:22;;;;;;;3.78;1.00;;;;;;;1.23;100.00;99372.94;10412909;28;20523;-69
2023/12/25 19:00:23;;;;;;;4.70;1.48;;;;;;;1.52;100.00;99414.88;10408971;28;20071;-69
2023/12/25 19:05:24;;;;;;;4.57;1.02;;;;;;;1.56;100.00;99411.88;10408579;28;20456;-69
2023/12/25 19:10:27;;;;;;;2.40;0.90;;;;;;;1.70;100.00;99407.22;10411960;28;20037;-70
2023/12/25 19:15:28;;;;;;;2.30;1.02;;;;;;;1.65;100.00;99399.78;10412379;28;20045;-70
2023/12/25 19:20:29;;;;;;;2.67;1.10;;;;;;;1.41;100.00;99321.63;10413397;28;20042;-69
2023/12/25 19:25:30;;;;;;;4.25;1.05;;;;;;;1.75;100.00;99395.38;10419070;28;20382;-69
2023/12/25 19:30:31;;;;;;;4.50;0.88;;;;;;;1.82;100.00;99427.94;10420453;28;20037;-69
2023/12/25 19:35:32;;;;;;;5.47;1.30;;;;;;;1.94;100.00;99482.81;10419633;28;20057;-70
2023/12/25 19:40:33;;;;;;;6.25;1.20;;;;;;;2.03;100.00;99495.94;10419082;28;20041;-71
2023/12/25 19:45:34;;;;;;;3.25;1.30;;;;;;;2.00;100.00;99492.75;10419448;28;20045;-70
2023/12/25 19:50:35;;;;;;;8.32;1.45;;;;;;;1.97;100.00;99449.31;10418524;28;20071;-70
2023/12/25 19:55:36;;;;;;;3.40;1.55;;;;;;;2.12;100.00;99460.22;10417503;28;20045;-71
2023/12/25 20:00:37;;;;;;;2.97;1.35;;;;;;;2.08;100.00;99445.75;10417451;28;20042;-70
2023/12/25 20:05:38;;;;;;;4.38;1.23;;;;;;;2.00;100.00;99430.69;10416879;28;20041;-70
2023/12/25 20:10:39;;;;;;;3.33;1.05;;;;;;;1.99;100.00;99433.47;10418360;28;20068;-70
2023/12/25 20:15:40;;;;;;;2.13;0.93;;;;;;;2.01;100.00;99434.19;10417964;28;20131;-70
2023/12/25 20:20:41;;;;;;;2.30;0.93;;;;;;;2.15;100.00;99453.91;10418392;28;20038;-70
2023/12/25 20:25:44;;;;;;;2.40;1.00;;;;;;;2.17;100.00;99442.31;10416802;28;20489;-70
2023/12/25 20:30:45;;;;;;;3.67;0.90;;;;;;;2.05;100.00;99414.59;10416980;28;20076;-70
2023/12/25 20:35:45;;;;;;;3.10;1.27;;;;;;;2.32;100.00;99455.84;10416774;28;20080;-70
2023/12/25 20:40:47;;;;;;;3.20;1.00;;;;;;;1.88;100.00;99344.53;10416809;28;20068;-71
2023/12/25 20:45:48;;;;;;;3.47;1.05;;;;;;;2.38;100.00;99430.88;10416920;28;20205;-70
2023/12/25 20:50:49;;;;;;;2.30;1.02;;;;;;;2.31;100.00;99400.97;10417940;28;20559;-70
2023/12/25 20:55:50;;;;;;;4.45;1.30;;;;;;;2.28;100.00;99384.53;10416935;28;20167;-70
2023/12/25 21:00:51;;;;;;;4.10;1.40;;;;;;;1.93;100.00;99324.00;10416526;28;20180;-70
2023/12/25 21:05:52;;;;;;;2.20;0.80;;;;;;;2.24;100.00;99380.56;10416139;28;20044;-70
2023/12/25 21:10:53;;;;;;;9.93;1.30;;;;;;;2.31;100.00;99354.63;10415441;28;20129;-70
2023/12/25 21:15:53;;;;;;;3.88;1.00;;;;;;;2.32;100.00;99355.44;10415082;28;20131;-70
2023/12/25 21:20:54;;;;;;;3.25;0.60;;;;;;;2.27;100.00;99359.31;10415534;28;20481;-70
2023/12/25 21:25:55;;;;;;;2.35;0.95;;;;;;;1.96;100.00;99280.03;10413041;28;20041;-69
2023/12/25 21:30:56;;;;;;;4.20;1.15;;;;;;;2.31;100.00;99344.13;10415422;28;20136;-70
2023/12/25 21:35:56;;;;;;;6.38;1.13;;;;;;;2.40;100.00;99360.81;10414405;28;20473;-70
2023/12/25 21:40:57;;;;;;;2.05;0.85;;;;;;;2.51;100.00;99387.72;10414703;28;20052;-70
2023/12/25 21:45:59;;;;;;;4.38;1.02;;;;;;;2.49;100.00;99409.78;10414334;28;20080;-70
2023/12/25 21:50:59;;;;;;;3.92;0.90;;;;;;;2.44;100.00;99391.00;10414820;28;20037;-70
2023/12/25 21:56:00;;;;;;;2.75;0.93;;;;;;;2.34;100.00;99393.66;10413089;28;20052;-70
2023/12/25 22:01:01;;;;;;;4.63;1.00;;;;;;;2.29;100.00;99403.72;10413601;28;20041;-70
2023/12/25 22:06:02;;;;;;;4.90;1.30;;;;;;;2.29;100.00;99448.25;10413390;28;20037;-70
2023/12/25 22:11:03;;;;;;;3.17;1.20;;;;;;;2.25;100.00;99431.16;10413209;28;20107;-71
2023/12/25 22:16:04;;;;;;;4.97;1.10;;;;;;;1.94;100.00;99380.66;10413647;28;20039;-70
2023/12/25 22:21:05;;;;;;;3.53;1.10;;;;;;;2.03;100.00;99362.34;10413663;28;20107;-70
2023/12/25 22:26:06;;;;;;;3.20;0.95;;;;;;;2.32;100.00;99400.81;10413455;28;20033;-70
2023/12/25 22:31:07;;;;;;;2.72;0.85;;;;;;;1.73;100.00;99307.44;10413333;28;20462;-70
2023/12/25 22:36:07;;;;;;;2.47;1.00;;;;;;;2.35;100.00;99397.91;10413106;28;20096;-70
2023/12/25 22:41:08;;;;;;;2.85;1.08;;;;;;;2.40;100.00;99402.75;10413076;28;20144;-70
2023/12/25 22:46:09;;;;;;;3.75;1.52;;;;;;;2.36;100.00;99398.72;10411297;28;20037;-70
2023/12/25 22:51:10;;;;;;;6.88;1.27;;;;;;;2.31;100.00;99382.63;10413692;28;20153;-70
2023/12/25 22:56:12;;;;;;;2.50;0.90;;;;;;;2.33;100.00;99393.78;10413436;28;20616;-70
2023/12/25 23:01:13;;;;;;;2.92;1.27;;;;;;;2.22;100.00;99371.19;10421079;28;20083;-70
2023/12/25 23:06:13;;;;;;;6.03;1.42;;;;;;;2.29;100.00;99416.81;10420370;28;20069;-70
2023/12/25 23:11:14;;;;;;;3.97;1.20;;;;;;;2.09;100.00;99366.19;10420253;28;20041;-70
2023/12/25 23:16:15;;;;;;;3.00;1.23;;;;;;;2.41;100.00;99393.91;10419105;28;20095;-71
2023/12/25 23:21:16;;;;;;;4.85;1.45;;;;;;;2.41;100.00;99394.75;10420383;28;20128;-70
2023/12/25 23:26:18;;;;;;;4.93;1.40;;;;;;;2.43;100.00;99399.84;10420076;28;20041;-70
2023/12/25 23:31:19;;;;;;;5.18;1.20;;;;;;;2.43;100.00;99403.31;10419762;28;20502;-70
2023/12/25 23:36:21;;;;;;;4.40;1.25;;;;;;;2.49;100.00;99420.28;10418676;28;20089;-70
2023/12/25 23:41:21;;;;;;;5.10;1.70;;;;;;;2.10;100.00;99344.28;10419432;28;20389;-70
2023/12/25 23:46:22;;;;;;;2.85;1.35;;;;;;;2.40;100.00;99398.34;10418747;28;20037;-70
2023/12/25 23:51:23;;;;;;;4.95;1.70;;;;;;;2.46;100.00;99410.88;10419863;28;20037;-70
2023/12/25 23:56:26;;;;;;;3.35;1.30;;;;;;;2.40;100.00;99400.97;10418520;28;20133;-70
